createdAt,value
2018-05-21T00:01:55.602Z,96.90
2018-05-21T00:04:24.102Z,97.30
2018-05-21T00:06:52.568Z,97.80
2018-05-21T00:09:20.983Z,97.80
2018-05-21T00:11:49.497Z,98.10
2018-05-21T00:14:17.966Z,98.00
2018-05-21T00:16:46.478Z,98.70
2018-05-21T00:19:15.190Z,99.30
2018-05-21T00:21:43.652Z,97.90
2018-05-21T00:24:12.123Z,98.20
2018-05-21T00:26:40.644Z,98.60
2018-05-21T00:29:09.137Z,99.10
2018-05-21T00:31:37.772Z,99.20
2018-05-21T00:34:06.363Z,98.90
2018-05-21T00:36:34.893Z,99.40
2018-05-21T00:39:03.417Z,99.60
2018-05-21T00:41:32.093Z,99.50
2018-05-21T00:44:00.604Z,99.90
2018-05-21T00:46:29.856Z,98.70
2018-05-21T00:48:58.335Z,98.70
2018-05-21T00:51:26.798Z,97.60
2018-05-21T00:53:55.273Z,97.30
2018-05-21T00:56:23.762Z,96.90
2018-05-21T00:58:53.172Z,96.90
2018-05-21T01:01:21.692Z,96.80
2018-05-21T01:03:50.919Z,96.60
2018-05-21T01:06:20.191Z,96.80
2018-05-21T01:08:48.722Z,96.80
2018-05-21T01:11:17.202Z,96.50
2018-05-21T01:13:45.695Z,96.70
2018-05-21T01:16:14.179Z,96.40
2018-05-21T01:18:43.431Z,96.70
2018-05-21T01:21:11.910Z,96.70
2018-05-21T01:23:40.380Z,96.80
2018-05-21T01:26:08.882Z,96.70
2018-05-21T01:28:37.642Z,96.80
2018-05-21T01:31:06.124Z,96.70
2018-05-21T01:33:34.589Z,96.60
2018-05-21T01:36:03.142Z,96.60
2018-05-21T01:38:31.793Z,96.90
2018-05-21T01:41:00.305Z,96.40
2018-05-21T01:43:28.793Z,96.70
2018-05-21T01:45:58.135Z,96.20
2018-05-21T01:48:26.647Z,96.30
2018-05-21T01:50:55.162Z,96.70
2018-05-21T01:53:23.800Z,97.20
2018-05-21T01:55:53.077Z,97.50
2018-05-21T01:58:21.922Z,97.40
2018-05-21T02:00:50.499Z,98.00
2018-05-21T02:03:19.004Z,98.40
2018-05-21T02:05:47.489Z,98.90
2018-05-21T02:08:16.045Z,98.60
2018-05-21T02:10:44.460Z,98.60
2018-05-21T02:13:12.951Z,98.80
2018-05-21T02:15:41.442Z,98.40
2018-05-21T02:18:09.916Z,98.50
2018-05-21T02:20:38.350Z,98.20
2018-05-21T02:23:06.917Z,98.50
2018-05-21T02:25:39.078Z,98.60
2018-05-21T02:28:10.314Z,98.20
2018-05-21T02:30:38.768Z,98.40
2018-05-21T02:33:07.220Z,98.40
2018-05-21T02:35:35.697Z,98.30
2018-05-21T02:38:05.039Z,98.30
2018-05-21T02:40:33.543Z,98.30
2018-05-21T02:43:03.166Z,98.40
2018-05-21T02:45:31.636Z,98.50
2018-05-21T02:48:00.075Z,98.60
2018-05-21T02:50:28.537Z,98.50
2018-05-21T02:52:57.054Z,98.20
2018-05-21T02:55:25.567Z,98.40
2018-05-21T02:57:54.967Z,98.40
2018-05-21T03:00:23.439Z,98.50
2018-05-21T03:02:52.953Z,98.70
2018-05-21T03:05:21.490Z,98.70
2018-05-21T03:07:49.942Z,98.70
2018-05-21T03:10:18.416Z,98.90
2018-05-21T03:12:46.866Z,99.00
2018-05-21T03:15:16.173Z,99.00
2018-05-21T03:17:44.695Z,99.10
2018-05-21T03:20:13.181Z,98.90
2018-05-21T03:22:41.674Z,99.20
2018-05-21T03:25:10.137Z,99.60
2018-05-21T03:27:38.638Z,98.90
2018-05-21T03:30:07.178Z,99.70
2018-05-21T03:32:36.543Z,99.30
2018-05-21T03:35:05.786Z,99.90
2018-05-21T03:37:37.223Z,99.90
2018-05-21T03:40:05.745Z,99.90
2018-05-21T03:42:34.163Z,99.90
2018-05-21T03:45:03.536Z,99.90
2018-05-21T03:47:32.049Z,99.90
2018-05-21T03:50:00.526Z,99.90
2018-05-21T03:52:28.999Z,99.90
2018-05-21T03:54:57.490Z,99.90
2018-05-21T03:57:25.949Z,99.90
2018-05-21T04:00:11.890Z,99.90
2018-05-21T04:02:57.873Z,99.90
2018-05-21T04:05:26.402Z,99.90
2018-05-21T04:07:54.881Z,99.90
2018-05-21T04:10:23.389Z,99.90
2018-05-21T04:12:51.874Z,99.90
2018-05-21T04:15:20.348Z,99.90
2018-05-21T04:17:48.894Z,99.90
2018-05-21T04:20:18.175Z,99.90
2018-05-21T04:22:46.656Z,99.90
2018-05-21T04:25:15.140Z,99.90
2018-05-21T04:27:43.598Z,99.90
2018-05-21T04:30:12.098Z,99.90
2018-05-21T04:32:41.682Z,99.90
2018-05-21T04:35:10.221Z,99.90
2018-05-21T04:37:38.700Z,99.90
2018-05-21T04:40:07.993Z,99.90
2018-05-21T04:42:37.268Z,99.90
2018-05-21T04:45:08.197Z,99.90
2018-05-21T04:47:36.655Z,99.90
2018-05-21T04:50:05.103Z,99.90
2018-05-21T04:52:33.614Z,99.90
2018-05-21T04:55:02.102Z,99.90
2018-05-21T04:57:30.600Z,99.90
2018-05-21T05:00:01.334Z,99.90
2018-05-21T05:02:29.834Z,99.90
2018-05-21T05:04:58.369Z,99.90
2018-05-21T05:07:26.859Z,99.90
2018-05-21T05:09:55.458Z,99.90
2018-05-21T05:12:23.987Z,99.90
2018-05-21T05:14:52.522Z,99.90
2018-05-21T05:17:25.728Z,99.90
2018-05-21T05:19:57.339Z,99.60
2018-05-21T05:22:25.881Z,99.80
2018-05-21T05:24:54.352Z,99.80
2018-05-21T05:27:22.805Z,99.90
2018-05-21T05:29:51.273Z,99.60
2018-05-21T05:32:19.820Z,99.60
2018-05-21T05:34:48.322Z,99.90
2018-05-21T05:37:16.772Z,99.90
2018-05-21T05:39:48.625Z,99.20
2018-05-21T05:42:17.110Z,98.40
2018-05-21T05:44:45.617Z,98.60
2018-05-21T05:47:14.116Z,98.70
2018-05-21T05:49:42.610Z,98.90
2018-05-21T05:52:11.167Z,98.80
2018-05-21T05:54:39.852Z,98.40
2018-05-21T05:57:10.422Z,98.50
2018-05-21T05:59:38.912Z,98.60
2018-05-21T06:02:07.377Z,98.30
2018-05-21T06:04:36.638Z,98.90
2018-05-21T06:07:05.133Z,98.80
2018-05-21T06:09:33.572Z,98.80
2018-05-21T06:12:02.093Z,99.10
2018-05-21T06:14:30.552Z,98.70
2018-05-21T06:16:59.019Z,98.40
2018-05-21T06:19:29.802Z,97.90
2018-05-21T06:22:00.627Z,98.40
2018-05-21T06:24:29.055Z,98.30
2018-05-21T06:26:57.605Z,99.20
2018-05-21T06:29:27.189Z,98.70
2018-05-21T06:31:55.795Z,98.40
2018-05-21T06:34:24.446Z,98.60
2018-05-21T06:36:53.869Z,99.10
2018-05-21T06:39:22.352Z,98.80
2018-05-21T06:41:50.767Z,98.30
2018-05-21T06:44:19.298Z,97.90
2018-05-21T06:46:47.790Z,98.10
2018-05-21T06:49:16.241Z,98.60
2018-05-21T06:51:44.774Z,98.20
2018-05-21T06:54:14.062Z,98.40
2018-05-21T06:56:44.065Z,98.50
2018-05-21T06:59:12.576Z,97.80
2018-05-21T07:01:41.070Z,98.10
2018-05-21T07:04:09.601Z,98.20
2018-05-21T07:06:38.069Z,98.70
2018-05-21T07:09:08.240Z,98.00
2018-05-21T07:11:36.672Z,97.80
2018-05-21T07:14:05.179Z,98.20
2018-05-21T07:16:33.753Z,98.40
2018-05-21T07:19:02.285Z,98.00
2018-05-21T07:21:30.845Z,97.80
2018-05-21T07:23:59.308Z,97.80
2018-05-21T07:26:27.804Z,97.70
2018-05-21T07:28:56.239Z,97.90
2018-05-21T07:31:24.756Z,97.50
2018-05-21T07:33:53.196Z,97.50
2018-05-21T07:36:22.450Z,97.50
2018-05-21T07:38:50.947Z,97.40
2018-05-21T07:41:19.450Z,97.70
2018-05-21T07:43:48.032Z,97.50
2018-05-21T07:46:17.267Z,97.70
2018-05-21T07:48:46.505Z,97.20
2018-05-21T07:51:14.978Z,97.20
2018-05-21T07:53:43.412Z,97.50
2018-05-21T07:56:11.856Z,97.30
2018-05-21T07:58:40.296Z,97.00
2018-05-21T08:01:09.572Z,96.80
2018-05-21T08:03:38.028Z,96.70
2018-05-21T08:06:06.497Z,96.60
2018-05-21T08:08:35.028Z,95.70
2018-05-21T08:11:03.492Z,95.70
2018-05-21T08:13:31.989Z,95.70
2018-05-21T08:16:00.424Z,95.50
2018-05-21T08:18:28.954Z,95.10
2018-05-21T08:20:57.386Z,94.80
2018-05-21T08:23:25.889Z,94.80
2018-05-21T08:25:54.330Z,94.90
2018-05-21T08:28:22.799Z,93.90
2018-05-21T08:30:51.311Z,94.90
2018-05-21T08:33:19.735Z,93.90
2018-05-21T08:35:48.229Z,94.50
2018-05-21T08:38:17.520Z,93.70
2018-05-21T08:40:46.764Z,93.10
2018-05-21T08:43:15.250Z,93.10
2018-05-21T08:45:43.665Z,93.80
2018-05-21T08:48:12.891Z,92.70
2018-05-21T08:50:41.382Z,92.80
2018-05-21T08:53:09.841Z,92.00
2018-05-21T08:55:38.299Z,91.50
2018-05-21T08:58:06.795Z,91.90
2018-05-21T09:00:35.230Z,91.60
2018-05-21T09:03:03.742Z,90.90
2018-05-21T09:05:32.377Z,90.80
2018-05-21T09:08:00.886Z,91.00
2018-05-21T09:10:29.375Z,91.30
2018-05-21T09:12:57.893Z,90.70
2018-05-21T09:15:27.627Z,91.50
2018-05-21T09:17:56.111Z,90.60
2018-05-21T09:20:24.642Z,90.90
2018-05-21T09:22:53.107Z,90.40
2018-05-21T09:25:23.842Z,90.60
2018-05-21T09:27:52.515Z,90.60
2018-05-21T09:30:20.973Z,90.20
2018-05-21T09:32:50.227Z,90.50
2018-05-21T09:35:18.692Z,90.50
2018-05-21T09:37:47.229Z,90.20
2018-05-21T09:40:15.765Z,88.40
2018-05-21T09:42:44.224Z,90.30
2018-05-21T09:45:12.763Z,90.70
2018-05-21T09:47:41.690Z,90.30
2018-05-21T09:50:10.168Z,90.70
2018-05-21T09:52:38.658Z,89.50
2018-05-21T09:55:07.148Z,89.40
2018-05-21T09:57:35.806Z,90.00
2018-05-21T10:00:04.349Z,89.60
2018-05-21T10:02:32.909Z,89.20
2018-05-21T10:05:01.683Z,89.40
2018-05-21T10:07:30.616Z,90.40
2018-05-21T10:09:59.161Z,89.30
2018-05-21T10:12:27.650Z,87.40
2018-05-21T10:14:56.169Z,87.40
2018-05-21T10:17:24.695Z,89.20
2018-05-21T10:19:53.192Z,88.60
2018-05-21T10:22:24.134Z,86.00
2018-05-21T10:24:52.838Z,88.60
2018-05-21T10:27:21.273Z,87.70
2018-05-21T10:29:49.753Z,87.70
2018-05-21T10:32:18.236Z,88.30
2018-05-21T10:34:46.724Z,85.90
2018-05-21T10:37:17.197Z,85.00
2018-05-21T10:39:45.782Z,85.50
2018-05-21T10:42:14.311Z,81.40
2018-05-21T10:44:42.964Z,73.20
2018-05-21T10:47:11.480Z,75.20
2018-05-21T10:49:39.972Z,74.60
2018-05-21T10:52:08.518Z,72.60
2018-05-21T10:54:37.039Z,73.50
2018-05-21T10:57:05.601Z,68.90
2018-05-21T10:59:34.133Z,67.90
2018-05-21T11:02:02.623Z,68.60
2018-05-21T11:04:31.111Z,69.90
2018-05-21T11:06:59.703Z,66.80
2018-05-21T11:09:28.162Z,67.00
2018-05-21T11:11:56.720Z,65.80
2018-05-21T11:14:25.253Z,63.10
2018-05-21T11:16:53.765Z,61.20
2018-05-21T11:19:22.534Z,61.40
2018-05-21T11:21:51.828Z,67.10
2018-05-21T11:24:24.097Z,67.00
2018-05-21T11:26:53.134Z,66.10
2018-05-21T11:29:22.401Z,62.20
2018-05-21T11:31:52.645Z,63.00
2018-05-21T11:34:21.966Z,61.70
2018-05-21T11:36:50.412Z,61.80
2018-05-21T11:39:18.945Z,62.90
2018-05-21T11:41:47.410Z,62.10
2018-05-21T11:44:20.191Z,62.50
2018-05-21T11:46:48.742Z,64.60
2018-05-21T11:49:17.267Z,64.10
2018-05-21T11:51:53.981Z,64.20
2018-05-21T11:54:22.533Z,66.00
2018-05-21T11:56:51.029Z,61.40
2018-05-21T11:59:20.260Z,61.70
2018-05-21T12:01:48.831Z,61.60
2018-05-21T12:04:17.378Z,64.50
2018-05-21T12:06:46.631Z,61.00
2018-05-21T12:09:15.093Z,60.80
2018-05-21T12:11:43.548Z,63.70
2018-05-21T12:14:12.007Z,63.20
2018-05-21T12:16:41.291Z,61.70
2018-05-21T12:19:23.495Z,61.70
2018-05-21T12:24:41.513Z,61.80
2018-05-21T12:27:11.270Z,60.40
2018-05-21T12:29:55.358Z,60.00
2018-05-21T12:32:25.838Z,62.20
2018-05-21T12:34:55.085Z,61.60
2018-05-21T12:37:28.868Z,61.20
2018-05-21T12:39:57.537Z,61.90
2018-05-21T12:42:54.200Z,61.40
2018-05-21T12:45:22.698Z,61.50
2018-05-21T12:47:51.195Z,59.90
2018-05-21T12:50:19.646Z,59.80
2018-05-21T12:52:48.138Z,60.80
2018-05-21T12:55:16.665Z,60.00
2018-05-21T12:57:45.513Z,60.60
2018-05-21T13:00:14.042Z,61.00
2018-05-21T13:02:43.318Z,59.20
2018-05-21T13:05:11.769Z,59.00
2018-05-21T13:07:53.443Z,58.80
2018-05-21T13:10:21.915Z,58.60
2018-05-21T13:12:50.446Z,60.80
2018-05-21T13:15:18.912Z,59.20
2018-05-21T13:17:47.414Z,59.10
2018-05-21T13:20:29.695Z,59.30
2018-05-21T13:26:15.307Z,58.40
2018-05-21T13:28:44.642Z,57.20
2018-05-21T13:31:13.944Z,57.20
2018-05-21T13:33:43.213Z,58.10
2018-05-21T13:36:13.364Z,59.00
2018-05-21T13:38:57.425Z,60.60
2018-05-21T13:41:26.138Z,57.70
2018-05-21T13:43:54.632Z,57.60
2018-05-21T13:46:23.125Z,56.30
2018-05-21T13:48:52.483Z,56.30
2018-05-21T13:51:20.984Z,56.20
2018-05-21T13:54:11.536Z,57.80
2018-05-21T13:56:43.274Z,58.40
2018-05-21T13:59:12.574Z,56.70
2018-05-21T14:01:41.080Z,56.60
2018-05-21T14:04:09.568Z,58.60
2018-05-21T14:06:38.077Z,56.20
2018-05-21T14:09:15.221Z,56.50
2018-05-21T14:11:45.127Z,57.00
2018-05-21T14:14:13.682Z,56.90
2018-05-21T14:16:45.993Z,57.60
2018-05-21T14:22:44.549Z,58.00
2018-05-21T14:25:14.184Z,57.20
2018-05-21T14:27:42.655Z,55.70
2018-05-21T14:30:11.131Z,58.70
2018-05-21T14:32:45.251Z,58.30
2018-05-21T14:35:15.097Z,57.70
2018-05-21T14:37:46.710Z,58.20
2018-05-21T14:40:23.393Z,59.00
2018-05-21T14:45:41.044Z,58.30
2018-05-21T14:48:16.295Z,57.40
2018-05-21T14:50:46.160Z,57.30
2018-05-21T14:53:14.607Z,56.10
2018-05-21T14:56:08.319Z,56.90
2018-05-21T14:58:36.791Z,56.70
2018-05-21T15:01:09.775Z,58.90
2018-05-21T15:06:33.943Z,57.20
2018-05-21T15:09:03.526Z,56.70
2018-05-21T15:11:32.921Z,56.60
2018-05-21T15:14:01.410Z,56.70
2018-05-21T15:16:33.422Z,57.00
2018-05-21T15:19:02.669Z,58.00
2018-05-21T15:21:33.766Z,58.00
2018-05-21T15:24:02.384Z,57.70
2018-05-21T15:26:30.859Z,58.10
2018-05-21T15:28:59.351Z,58.00
2018-05-21T15:31:27.841Z,56.50
2018-05-21T15:33:57.051Z,57.80
2018-05-21T15:36:25.518Z,57.70
2018-05-21T15:38:56.243Z,58.90
2018-05-21T15:41:28.213Z,58.80
2018-05-21T15:44:26.086Z,59.70
2018-05-21T15:46:54.636Z,59.10
2018-05-21T15:52:23.586Z,59.70
2018-05-21T15:58:01.578Z,61.20
2018-05-21T16:00:47.817Z,61.10
2018-05-21T16:03:36.189Z,60.50
2018-05-21T16:06:06.230Z,61.70
2018-05-21T16:08:37.215Z,59.70
2018-05-21T16:11:05.869Z,60.60
2018-05-21T16:13:35.321Z,60.90
2018-05-21T16:16:04.049Z,61.80
2018-05-21T16:18:32.558Z,61.80
2018-05-21T16:21:01.301Z,62.30
2018-05-21T16:23:29.885Z,63.00
2018-05-21T16:25:59.348Z,63.80
2018-05-21T16:28:28.656Z,63.40
2018-05-21T16:30:57.233Z,63.30
2018-05-21T16:33:26.515Z,62.40
2018-05-21T16:35:55.241Z,63.10
2018-05-21T16:38:23.900Z,63.20
2018-05-21T16:40:52.405Z,62.90
2018-05-21T16:43:21.291Z,63.30
2018-05-21T16:45:49.821Z,64.40
2018-05-21T16:48:18.596Z,64.00
2018-05-21T16:50:47.257Z,64.20
2018-05-21T16:53:15.849Z,64.60
2018-05-21T16:55:44.412Z,64.00
2018-05-21T16:58:12.937Z,63.70
2018-05-21T17:00:42.096Z,64.70
2018-05-21T17:03:12.567Z,65.10
2018-05-21T17:05:41.179Z,65.10
2018-05-21T17:08:09.762Z,64.00
2018-05-21T17:10:38.861Z,64.80
2018-05-21T17:13:07.616Z,65.40
2018-05-21T17:15:36.346Z,64.80
2018-05-21T17:18:04.959Z,65.90
2018-05-21T17:20:33.681Z,65.80
2018-05-21T17:23:02.310Z,66.60
2018-05-21T17:25:33.788Z,65.80
2018-05-21T17:28:02.512Z,66.90
2018-05-21T17:30:31.168Z,66.40
2018-05-21T17:32:59.719Z,67.20
2018-05-21T17:35:28.398Z,68.10
2018-05-21T17:37:56.954Z,67.30
2018-05-21T17:40:25.612Z,68.30
2018-05-21T17:42:54.980Z,68.50
2018-05-21T17:45:23.566Z,68.60
2018-05-21T17:47:52.206Z,68.50
2018-05-21T17:50:20.920Z,68.00
2018-05-21T17:52:49.492Z,67.30
2018-05-21T17:55:18.165Z,67.30
2018-05-21T17:57:46.749Z,67.30
2018-05-21T18:00:15.392Z,67.90
2018-05-21T18:03:01.421Z,68.20
2018-05-21T18:05:30.061Z,67.10
2018-05-21T18:07:59.632Z,67.50
2018-05-21T18:10:31.642Z,68.10
2018-05-21T18:13:00.215Z,67.80
2018-05-21T18:15:32.703Z,67.80
2018-05-21T18:18:05.149Z,67.60
2018-05-21T18:20:36.678Z,68.00
2018-05-21T18:23:05.274Z,67.60
2018-05-21T18:25:34.097Z,67.30
2018-05-21T18:28:03.097Z,66.80
2018-05-21T18:30:31.867Z,68.10
2018-05-21T18:33:00.765Z,67.70
2018-05-21T18:35:29.425Z,68.70
2018-05-21T18:37:58.067Z,68.40
2018-05-21T18:43:22.095Z,68.80
2018-05-21T18:46:35.822Z,69.20
2018-05-21T18:52:27.844Z,69.30
2018-05-21T18:55:01.856Z,69.20
2018-05-21T18:57:32.866Z,69.60
2018-05-21T19:03:14.476Z,69.50
2018-05-21T19:05:44.894Z,70.40
2018-05-21T19:08:15.248Z,70.00
2018-05-21T19:10:45.265Z,70.30
2018-05-21T19:13:15.691Z,69.50
2018-05-21T19:15:47.115Z,70.30
2018-05-21T19:18:26.180Z,70.20
2018-05-21T19:24:11.035Z,70.70
2018-05-21T19:36:53.841Z,72.20
2018-05-21T19:39:29.269Z,71.90
2018-05-21T19:42:00.195Z,71.60
2018-05-21T19:44:36.677Z,71.80
2018-05-21T19:47:09.925Z,71.90
2018-05-21T19:49:58.344Z,72.70
2018-05-21T19:52:27.237Z,72.30
2018-05-21T19:54:56.812Z,73.20
2018-05-21T19:57:27.191Z,73.20
2018-05-21T20:02:59.768Z,73.70
2018-05-21T20:05:35.410Z,74.40
2018-05-21T20:30:20.880Z,76.90
2018-05-21T20:39:13.000Z,77.20
2018-05-21T20:41:42.849Z,78.10
2018-05-21T20:44:43.379Z,78.10
2018-05-21T21:34:33.549Z,81.00
2018-05-21T21:39:43.722Z,80.40
2018-05-21T21:45:13.740Z,81.80
2018-05-21T21:47:42.750Z,81.60
2018-05-21T21:53:38.908Z,82.10
2018-05-21T21:56:07.709Z,81.90
2018-05-21T21:58:52.676Z,81.50
2018-05-21T22:04:15.671Z,81.60
2018-05-21T22:06:51.710Z,82.60
2018-05-21T22:09:20.829Z,82.00
2018-05-21T22:17:38.236Z,82.50
2018-05-21T22:20:08.081Z,82.50
2018-05-21T22:44:13.804Z,83.00
2018-05-21T22:46:43.984Z,83.40
2018-05-21T22:52:35.354Z,83.90
2018-05-21T23:07:19.443Z,85.40
2018-05-21T23:09:49.597Z,87.00
2018-05-21T23:12:20.389Z,86.40
2018-05-21T23:15:14.812Z,86.60
2018-05-21T23:24:02.084Z,87.80
2018-05-21T23:29:21.347Z,87.80
2018-05-21T23:32:04.737Z,88.30
2018-05-21T23:34:47.274Z,88.20
2018-05-21T23:37:17.014Z,88.30
2018-05-21T23:45:24.199Z,88.60
2018-05-21T23:48:09.985Z,89.00
2018-05-21T23:53:24.399Z,88.90
2018-05-21T23:55:54.009Z,87.90
